createdAt,value
2018-12-08T00:00:36.121Z,6.92
2018-12-08T00:05:32.248Z,6.92
2018-12-08T00:10:28.292Z,6.79
2018-12-08T00:15:24.418Z,6.81
2018-12-08T00:20:20.441Z,6.87
2018-12-08T00:25:17.175Z,6.87
2018-12-08T00:30:25.558Z,6.78
2018-12-08T00:35:21.576Z,6.79
2018-12-08T00:40:17.621Z,6.80
2018-12-08T00:45:13.669Z,6.89
2018-12-08T00:50:09.811Z,6.96
2018-12-08T00:55:11.066Z,6.99
2018-12-08T01:00:07.253Z,7.00
2018-12-08T01:05:03.693Z,7.03
2018-12-08T01:09:59.742Z,7.03
2018-12-08T01:14:55.759Z,7.00
2018-12-08T01:19:51.764Z,6.97
2018-12-08T01:24:50.628Z,7.02
2018-12-08T01:29:46.642Z,7.01
2018-12-08T01:34:42.694Z,7.02
2018-12-08T01:39:38.708Z,7.02
2018-12-08T01:44:34.749Z,7.00
2018-12-08T01:49:30.765Z,7.04
2018-12-08T01:54:28.702Z,7.10
2018-12-08T01:59:24.798Z,7.08
2018-12-08T02:04:20.858Z,7.04
2018-12-08T02:09:16.878Z,6.91
2018-12-08T02:14:12.930Z,6.85
2018-12-08T02:19:08.932Z,6.75
2018-12-08T02:24:07.197Z,6.69
2018-12-08T02:29:03.341Z,6.78
2018-12-08T02:33:59.367Z,6.82
2018-12-08T02:38:55.459Z,6.94
2018-12-08T02:43:51.516Z,7.00
2018-12-08T02:48:47.639Z,7.06
2018-12-08T02:53:43.682Z,7.07
2018-12-08T02:58:39.753Z,7.11
2018-12-08T03:03:35.794Z,7.14
2018-12-08T03:08:32.065Z,7.09
2018-12-08T03:13:28.090Z,7.03
2018-12-08T03:18:24.199Z,6.92
2018-12-08T03:23:20.276Z,6.88
2018-12-08T03:28:16.306Z,6.85
2018-12-08T03:33:12.337Z,6.94
2018-12-08T03:38:08.430Z,6.96
2018-12-08T03:43:04.484Z,7.03
2018-12-08T03:48:00.500Z,6.99
2018-12-08T03:52:56.533Z,6.99
2018-12-08T03:57:52.681Z,7.05
2018-12-08T04:02:48.705Z,7.08
2018-12-08T04:07:44.740Z,7.05
2018-12-08T04:12:40.783Z,7.10
2018-12-08T04:17:36.869Z,7.09
2018-12-08T04:22:33.023Z,7.18
2018-12-08T04:27:30.903Z,7.24
2018-12-08T04:32:26.955Z,7.24
2018-12-08T04:37:23.006Z,7.26
2018-12-08T04:42:19.034Z,7.31
2018-12-08T04:47:15.149Z,7.31
2018-12-08T04:52:11.176Z,7.39
2018-12-08T04:57:07.189Z,7.41
2018-12-08T05:02:03.234Z,7.46
2018-12-08T05:06:59.265Z,7.49
2018-12-08T05:11:55.286Z,7.53
2018-12-08T05:16:51.369Z,7.55
2018-12-08T05:21:47.389Z,7.49
2018-12-08T05:26:43.402Z,7.30
2018-12-08T05:31:39.418Z,7.14
2018-12-08T05:36:35.441Z,7.13
2018-12-08T05:41:31.590Z,7.23
2018-12-08T05:46:27.609Z,7.22
2018-12-08T05:51:23.645Z,7.28
2018-12-08T05:56:19.664Z,7.25
2018-12-08T06:01:15.687Z,7.18
2018-12-08T06:06:11.798Z,7.11
2018-12-08T06:11:07.825Z,7.09
2018-12-08T06:16:03.958Z,7.06
2018-12-08T06:21:00.001Z,7.10
2018-12-08T06:25:56.134Z,7.08
2018-12-08T06:30:52.163Z,7.07
2018-12-08T06:35:48.217Z,7.09
2018-12-08T06:40:44.268Z,7.15
2018-12-08T06:45:40.325Z,7.17
2018-12-08T06:50:36.375Z,7.29
2018-12-08T06:55:32.415Z,7.41
2018-12-08T07:00:28.568Z,7.45
2018-12-08T07:05:24.658Z,7.49
2018-12-08T07:10:20.692Z,7.48
2018-12-08T07:15:16.727Z,7.47
2018-12-08T07:20:12.843Z,7.46
2018-12-08T07:25:10.055Z,7.48
2018-12-08T07:30:07.747Z,7.50
2018-12-08T07:35:04.730Z,7.50
2018-12-08T07:40:01.090Z,7.48
2018-12-08T07:44:57.150Z,7.35
2018-12-08T07:49:53.187Z,7.35
2018-12-08T07:54:49.876Z,7.32
2018-12-08T07:59:45.954Z,7.32
2018-12-08T08:04:42.015Z,7.31
2018-12-08T08:09:38.051Z,7.37
2018-12-08T08:14:34.098Z,7.28
2018-12-08T08:19:30.140Z,7.24
2018-12-08T08:24:29.691Z,7.27
2018-12-08T08:29:25.781Z,7.29
2018-12-08T08:34:21.895Z,7.28
2018-12-08T08:39:17.942Z,7.26
2018-12-08T08:44:13.997Z,7.29
2018-12-08T08:49:10.063Z,7.24
2018-12-08T08:54:07.803Z,7.25
2018-12-08T08:59:03.867Z,7.30
2018-12-08T09:03:59.937Z,7.22
2018-12-08T09:08:55.990Z,7.28
2018-12-08T09:13:52.057Z,7.27
2018-12-08T09:18:48.118Z,7.31
2018-12-08T09:23:44.302Z,7.36
2018-12-08T09:28:40.445Z,7.39
2018-12-08T09:33:36.476Z,7.39
2018-12-08T09:38:32.533Z,7.39
2018-12-08T09:43:28.566Z,7.39
2018-12-08T09:48:24.665Z,7.34
2018-12-08T09:53:20.755Z,7.29
2018-12-08T09:58:16.818Z,7.31
2018-12-08T10:03:12.850Z,7.28
2018-12-08T10:08:08.911Z,7.26
2018-12-08T10:13:05.875Z,7.21
2018-12-08T10:18:02.729Z,7.25
2018-12-08T10:22:59.517Z,7.30
2018-12-08T10:27:58.294Z,7.41
2018-12-08T10:32:55.132Z,7.44
2018-12-08T10:37:51.263Z,7.43
2018-12-08T10:42:47.316Z,7.44
2018-12-08T10:47:43.378Z,7.47
2018-12-08T10:52:39.417Z,7.51
2018-12-08T10:57:35.463Z,7.56
2018-12-08T11:02:36.505Z,7.47
2018-12-08T11:07:32.602Z,7.50
2018-12-08T11:12:28.666Z,7.45
2018-12-08T11:17:24.851Z,7.47
2018-12-08T11:22:20.904Z,7.48
2018-12-08T11:27:17.825Z,7.51
2018-12-08T11:32:15.789Z,7.61
2018-12-08T11:37:12.002Z,7.70
2018-12-08T11:42:08.063Z,7.73
2018-12-08T11:47:04.193Z,7.74
2018-12-08T11:52:00.239Z,7.79
2018-12-08T11:56:56.417Z,7.78
2018-12-08T12:01:52.477Z,7.79
2018-12-08T12:06:48.522Z,7.89
2018-12-08T12:11:44.550Z,8.12
2018-12-08T12:16:40.604Z,8.20
2018-12-08T12:21:36.698Z,8.23
2018-12-08T12:26:32.726Z,8.29
2018-12-08T12:31:28.761Z,8.41
2018-12-08T12:36:25.020Z,8.40
2018-12-08T12:41:21.088Z,8.46
2018-12-08T12:46:17.147Z,8.42
2018-12-08T12:51:13.284Z,8.43
2018-12-08T12:56:09.304Z,8.46
2018-12-08T13:01:05.523Z,8.47
2018-12-08T13:06:01.586Z,8.43
2018-12-08T13:10:57.617Z,8.44
2018-12-08T13:15:53.712Z,8.42
2018-12-08T13:20:50.561Z,8.54
2018-12-08T13:25:48.172Z,8.60
2018-12-08T13:30:44.776Z,8.76
2018-12-08T13:35:49.290Z,8.85
2018-12-08T13:40:45.338Z,8.90
2018-12-08T13:45:41.402Z,8.91
2018-12-08T13:50:37.571Z,9.00
2018-12-08T13:55:33.618Z,9.00
2018-12-08T14:00:29.680Z,9.00
2018-12-08T14:05:25.733Z,8.95
2018-12-08T14:10:21.804Z,8.93
2018-12-08T14:15:17.901Z,8.93
2018-12-08T14:20:22.014Z,8.85
2018-12-08T14:25:19.095Z,8.72
2018-12-08T14:30:15.168Z,8.71
2018-12-08T14:35:11.192Z,8.72
2018-12-08T14:40:08.334Z,8.72
2018-12-08T14:45:04.694Z,8.72
2018-12-08T14:50:00.729Z,8.70
2018-12-08T14:54:57.542Z,8.56
2018-12-08T14:59:53.624Z,8.39
2018-12-08T15:04:49.976Z,8.42
2018-12-08T15:09:46.087Z,8.46
2018-12-08T15:14:42.282Z,8.50
2018-12-08T15:19:38.335Z,8.51
2018-12-08T15:24:37.180Z,8.48
2018-12-08T15:29:33.291Z,8.46
2018-12-08T15:34:29.441Z,8.45
2018-12-08T15:39:25.495Z,8.50
2018-12-08T15:44:21.593Z,8.52
2018-12-08T15:49:17.611Z,8.75
2018-12-08T15:54:16.008Z,8.64
2018-12-08T15:59:12.093Z,8.25
2018-12-08T16:04:08.219Z,8.11
2018-12-08T16:09:04.581Z,8.07
2018-12-08T16:14:00.611Z,8.12
2018-12-08T16:18:57.053Z,8.36
2018-12-08T16:23:53.101Z,8.45
2018-12-08T16:28:49.151Z,8.46
2018-12-08T16:33:45.150Z,8.53
2018-12-08T16:38:41.162Z,8.53
2018-12-08T16:43:37.590Z,8.50
2018-12-08T16:48:35.711Z,8.44
2018-12-08T16:53:32.008Z,8.50
2018-12-08T16:58:28.113Z,8.48
2018-12-08T17:03:24.198Z,8.46
2018-12-08T17:08:20.321Z,8.38
2018-12-08T17:13:16.361Z,8.30
2018-12-08T17:18:12.506Z,8.23
2018-12-08T17:23:09.619Z,8.21
2018-12-08T17:28:05.733Z,8.23
2018-12-08T17:33:01.771Z,8.28
2018-12-08T17:37:57.997Z,8.44
2018-12-08T17:42:54.079Z,8.52
2018-12-08T17:47:50.267Z,8.60
2018-12-08T17:52:46.462Z,8.62
2018-12-08T17:57:42.575Z,8.71
2018-12-08T18:02:38.728Z,8.76
2018-12-08T18:07:35.075Z,8.68
2018-12-08T18:12:32.413Z,8.68
2018-12-08T18:17:30.651Z,8.72
2018-12-08T18:22:28.374Z,8.74
2018-12-08T18:27:27.420Z,8.80
2018-12-08T18:32:24.224Z,8.75
2018-12-08T18:37:20.299Z,8.76
2018-12-08T18:42:16.389Z,8.80
2018-12-08T18:47:12.399Z,8.85
2018-12-08T18:52:08.446Z,8.92
2018-12-08T18:57:04.797Z,9.00
2018-12-08T19:02:04.194Z,9.12
2018-12-08T19:07:01.850Z,9.11
2018-12-08T19:11:57.926Z,9.00
2018-12-08T19:16:53.950Z,8.83
2018-12-08T19:21:50.102Z,8.80
2018-12-08T19:26:46.133Z,8.76
2018-12-08T19:31:42.161Z,8.81
2018-12-08T19:36:38.179Z,8.86
2018-12-08T19:41:34.198Z,8.79
2018-12-08T19:46:30.235Z,8.78
2018-12-08T19:51:26.245Z,8.73
2018-12-08T19:56:22.325Z,8.75
2018-12-08T20:01:18.362Z,8.76
2018-12-08T20:06:14.369Z,8.78
2018-12-08T20:11:10.387Z,8.77
2018-12-08T20:16:06.430Z,8.84
2018-12-08T20:21:02.583Z,8.90
2018-12-08T20:25:58.593Z,8.93
2018-12-08T20:30:54.616Z,8.96
2018-12-08T20:35:50.630Z,8.96
2018-12-08T20:40:46.654Z,8.92
2018-12-08T20:45:43.547Z,8.91
2018-12-08T20:50:39.633Z,8.86
2018-12-08T20:55:42.421Z,8.84
2018-12-08T21:00:39.333Z,8.83
2018-12-08T21:05:35.414Z,8.80
2018-12-08T21:10:32.735Z,8.85
2018-12-08T21:15:28.875Z,8.85
2018-12-08T21:20:24.901Z,8.86
2018-12-08T21:25:21.669Z,8.88
2018-12-08T21:30:17.697Z,8.86
2018-12-08T21:35:13.743Z,8.94
2018-12-08T21:40:13.815Z,8.95
2018-12-08T21:45:09.988Z,9.00
2018-12-08T21:50:06.110Z,9.00
2018-12-08T21:55:03.008Z,9.05
2018-12-08T22:00:02.117Z,9.13
2018-12-08T22:04:58.165Z,9.20
2018-12-08T22:09:54.251Z,9.22
2018-12-08T22:14:56.363Z,9.08
2018-12-08T22:19:52.896Z,9.14
2018-12-08T22:24:49.611Z,9.15
2018-12-08T22:29:45.621Z,9.15
2018-12-08T22:34:41.740Z,9.18
2018-12-08T22:39:37.850Z,9.18
2018-12-08T22:44:33.864Z,9.27
2018-12-08T22:49:29.967Z,9.33
2018-12-08T22:54:27.005Z,9.29
2018-12-08T22:59:23.093Z,9.32
2018-12-08T23:04:19.120Z,9.34
2018-12-08T23:09:15.141Z,9.42
2018-12-08T23:14:11.169Z,9.52
2018-12-08T23:19:07.240Z,9.65
2018-12-08T23:24:04.814Z,9.47
2018-12-08T23:29:01.039Z,9.41
2018-12-08T23:33:57.066Z,9.35
2018-12-08T23:38:53.095Z,9.17
2018-12-08T23:43:49.129Z,8.58
2018-12-08T23:48:45.158Z,8.83
2018-12-08T23:58:54.046Z,8.09
